sensor_id;sensor_type;location;lat;lon;timestamp;temperature;humidity
66568;DHT22;53422;49.296;6.900;2024-01-11T00:01:25;-2.70;91.30
66568;DHT22;53422;49.296;6.900;2024-01-11T00:03:51;-2.70;91.80
66568;DHT22;53422;49.296;6.900;2024-01-11T00:06:16;-2.70;91.60
66568;DHT22;53422;49.296;6.900;2024-01-11T00:08:42;-2.80;91.10
66568;DHT22;53422;49.296;6.900;2024-01-11T00:11:08;-2.80;91.40
66568;DHT22;53422;49.296;6.900;2024-01-11T00:13:34;-2.80;91.70
66568;DHT22;53422;49.296;6.900;2024-01-11T00:15:59;-2.80;91.00
66568;DHT22;53422;49.296;6.900;2024-01-11T00:18:25;-2.80;91.50
66568;DHT22;53422;49.296;6.900;2024-01-11T00:20:50;-2.80;91.30
66568;DHT22;53422;49.296;6.900;2024-01-11T00:23:17;-2.80;91.60
66568;DHT22;53422;49.296;6.900;2024-01-11T00:25:43;-2.80;91.50
66568;DHT22;53422;49.296;6.900;2024-01-11T00:28:08;-2.80;91.50
66568;DHT22;53422;49.296;6.900;2024-01-11T00:30:34;-2.80;91.50
66568;DHT22;53422;49.296;6.900;2024-01-11T00:33:00;-2.80;91.60
66568;DHT22;53422;49.296;6.900;2024-01-11T00:35:25;-2.80;91.60
66568;DHT22;53422;49.296;6.900;2024-01-11T00:37:51;-2.70;92.00
66568;DHT22;53422;49.296;6.900;2024-01-11T00:40:17;-2.80;91.60
66568;DHT22;53422;49.296;6.900;2024-01-11T00:42:43;-2.80;91.30
66568;DHT22;53422;49.296;6.900;2024-01-11T00:45:08;-2.80;91.60
66568;DHT22;53422;49.296;6.900;2024-01-11T00:47:34;-2.80;91.70
66568;DHT22;53422;49.296;6.900;2024-01-11T00:50:00;-2.80;92.00
66568;DHT22;53422;49.296;6.900;2024-01-11T00:52:26;-2.80;91.90
66568;DHT22;53422;49.296;6.900;2024-01-11T00:54:51;-2.80;92.00
66568;DHT22;53422;49.296;6.900;2024-01-11T00:57:17;-2.80;91.80
66568;DHT22;53422;49.296;6.900;2024-01-11T00:59:43;-2.80;92.00
66568;DHT22;53422;49.296;6.900;2024-01-11T01:02:08;-2.80;92.10
66568;DHT22;53422;49.296;6.900;2024-01-11T01:04:37;-2.80;92.10
66568;DHT22;53422;49.296;6.900;2024-01-11T01:07:04;-2.80;92.30
66568;DHT22;53422;49.296;6.900;2024-01-11T01:09:31;-2.80;92.20
66568;DHT22;53422;49.296;6.900;2024-01-11T01:11:56;-2.80;92.00
66568;DHT22;53422;49.296;6.900;2024-01-11T01:14:22;-2.80;92.10
66568;DHT22;53422;49.296;6.900;2024-01-11T01:16:48;-2.80;91.30
66568;DHT22;53422;49.296;6.900;2024-01-11T01:19:14;-2.90;91.60
66568;DHT22;53422;49.296;6.900;2024-01-11T01:21:39;-2.90;92.70
66568;DHT22;53422;49.296;6.900;2024-01-11T01:24:05;-2.90;92.10
66568;DHT22;53422;49.296;6.900;2024-01-11T01:26:30;-2.90;92.10
66568;DHT22;53422;49.296;6.900;2024-01-11T01:28:56;-2.90;92.10
66568;DHT22;53422;49.296;6.900;2024-01-11T01:31:22;-2.90;91.90
66568;DHT22;53422;49.296;6.900;2024-01-11T01:33:48;-2.90;92.10
66568;DHT22;53422;49.296;6.900;2024-01-11T01:36:13;-2.90;92.10
66568;DHT22;53422;49.296;6.900;2024-01-11T01:38:39;-2.90;92.30
66568;DHT22;53422;49.296;6.900;2024-01-11T01:41:05;-2.90;91.80
66568;DHT22;53422;49.296;6.900;2024-01-11T01:43:31;-2.90;92.40
66568;DHT22;53422;49.296;6.900;2024-01-11T01:45:56;-2.90;92.50
66568;DHT22;53422;49.296;6.900;2024-01-11T01:48:23;-3.00;92.20
66568;DHT22;53422;49.296;6.900;2024-01-11T01:50:49;-3.00;92.70
66568;DHT22;53422;49.296;6.900;2024-01-11T01:53:20;-3.00;92.40
66568;DHT22;53422;49.296;6.900;2024-01-11T01:55:47;-2.90;93.00
66568;DHT22;53422;49.296;6.900;2024-01-11T01:58:15;-3.00;92.30
66568;DHT22;53422;49.296;6.900;2024-01-11T02:00:41;-3.00;91.60
66568;DHT22;53422;49.296;6.900;2024-01-11T02:03:08;-3.00;92.10
66568;DHT22;53422;49.296;6.900;2024-01-11T02:05:34;-3.00;92.40
66568;DHT22;53422;49.296;6.900;2024-01-11T02:08:03;-3.00;92.60
66568;DHT22;53422;49.296;6.900;2024-01-11T02:10:29;-3.00;92.20
66568;DHT22;53422;49.296;6.900;2024-01-11T02:12:56;-3.10;92.50
66568;DHT22;53422;49.296;6.900;2024-01-11T02:15:21;-3.10;92.80
66568;DHT22;53422;49.296;6.900;2024-01-11T02:17:47;-3.00;92.70
66568;DHT22;53422;49.296;6.900;2024-01-11T02:20:14;-3.00;92.50
66568;DHT22;53422;49.296;6.900;2024-01-11T02:22:42;-3.00;93.30
66568;DHT22;53422;49.296;6.900;2024-01-11T02:25:08;-3.00;93.00
66568;DHT22;53422;49.296;6.900;2024-01-11T02:27:47;-3.00;92.90
66568;DHT22;53422;49.296;6.900;2024-01-11T02:30:13;-3.00;92.60
66568;DHT22;53422;49.296;6.900;2024-01-11T02:32:39;-3.10;92.90
66568;DHT22;53422;49.296;6.900;2024-01-11T02:35:05;-3.10;93.10
66568;DHT22;53422;49.296;6.900;2024-01-11T02:37:31;-3.10;93.30
66568;DHT22;53422;49.296;6.900;2024-01-11T02:39:57;-3.10;92.90
66568;DHT22;53422;49.296;6.900;2024-01-11T02:42:23;-3.00;93.10
66568;DHT22;53422;49.296;6.900;2024-01-11T02:44:49;-3.00;92.70
66568;DHT22;53422;49.296;6.900;2024-01-11T02:47:14;-3.10;92.80
66568;DHT22;53422;49.296;6.900;2024-01-11T02:49:40;-3.10;93.10
66568;DHT22;53422;49.296;6.900;2024-01-11T02:52:05;-3.10;92.60
66568;DHT22;53422;49.296;6.900;2024-01-11T02:54:31;-3.20;92.40
66568;DHT22;53422;49.296;6.900;2024-01-11T02:56:57;-3.10;93.20
66568;DHT22;53422;49.296;6.900;2024-01-11T02:59:23;-3.10;93.50
66568;DHT22;53422;49.296;6.900;2024-01-11T03:01:49;-3.10;93.80
66568;DHT22;53422;49.296;6.900;2024-01-11T03:04:15;-3.00;94.10
66568;DHT22;53422;49.296;6.900;2024-01-11T03:06:42;-3.00;94.00
66568;DHT22;53422;49.296;6.900;2024-01-11T03:09:07;-3.10;93.50
66568;DHT22;53422;49.296;6.900;2024-01-11T03:11:33;-3.00;93.70
66568;DHT22;53422;49.296;6.900;2024-01-11T03:13:59;-3.10;92.60
66568;DHT22;53422;49.296;6.900;2024-01-11T03:16:24;-3.10;93.60
66568;DHT22;53422;49.296;6.900;2024-01-11T03:18:50;-3.10;93.40
66568;DHT22;53422;49.296;6.900;2024-01-11T03:21:16;-3.10;93.10
66568;DHT22;53422;49.296;6.900;2024-01-11T03:23:41;-3.10;93.50
66568;DHT22;53422;49.296;6.900;2024-01-11T03:26:15;-3.20;94.20
66568;DHT22;53422;49.296;6.900;2024-01-11T03:28:41;-3.10;94.20
66568;DHT22;53422;49.296;6.900;2024-01-11T03:31:08;-3.10;93.50
66568;DHT22;53422;49.296;6.900;2024-01-11T03:33:34;-3.20;93.80
66568;DHT22;53422;49.296;6.900;2024-01-11T03:36:05;-3.20;94.20
66568;DHT22;53422;49.296;6.900;2024-01-11T03:38:31;-3.20;93.70
66568;DHT22;53422;49.296;6.900;2024-01-11T03:40:57;-3.20;93.70
66568;DHT22;53422;49.296;6.900;2024-01-11T03:43:22;-3.20;94.20
66568;DHT22;53422;49.296;6.900;2024-01-11T03:45:48;-3.20;93.50
66568;DHT22;53422;49.296;6.900;2024-01-11T03:48:14;-3.20;93.90
66568;DHT22;53422;49.296;6.900;2024-01-11T03:50:39;-3.20;94.20
66568;DHT22;53422;49.296;6.900;2024-01-11T03:53:05;-3.20;93.80
66568;DHT22;53422;49.296;6.900;2024-01-11T03:55:30;-3.20;93.50
66568;DHT22;53422;49.296;6.900;2024-01-11T03:57:56;-3.20;94.00
66568;DHT22;53422;49.296;6.900;2024-01-11T04:00:22;-3.20;93.50
66568;DHT22;53422;49.296;6.900;2024-01-11T04:02:47;-3.20;93.50
66568;DHT22;53422;49.296;6.900;2024-01-11T04:05:13;-3.20;93.80
66568;DHT22;53422;49.296;6.900;2024-01-11T04:07:38;-3.20;93.50
66568;DHT22;53422;49.296;6.900;2024-01-11T04:10:04;-3.20;93.70
66568;DHT22;53422;49.296;6.900;2024-01-11T04:12:30;-3.20;93.20
66568;DHT22;53422;49.296;6.900;2024-01-11T04:14:56;-3.20;93.70
66568;DHT22;53422;49.296;6.900;2024-01-11T04:17:22;-3.30;94.10
66568;DHT22;53422;49.296;6.900;2024-01-11T04:19:47;-3.30;94.00
66568;DHT22;53422;49.296;6.900;2024-01-11T04:22:13;-3.30;94.20
66568;DHT22;53422;49.296;6.900;2024-01-11T04:24:41;-3.20;93.90
66568;DHT22;53422;49.296;6.900;2024-01-11T04:27:07;-3.30;94.00
66568;DHT22;53422;49.296;6.900;2024-01-11T04:29:32;-3.30;93.90
66568;DHT22;53422;49.296;6.900;2024-01-11T04:31:58;-3.30;94.00
66568;DHT22;53422;49.296;6.900;2024-01-11T04:34:24;-3.20;94.00
66568;DHT22;53422;49.296;6.900;2024-01-11T04:36:49;-3.20;93.80
66568;DHT22;53422;49.296;6.900;2024-01-11T04:39:15;-3.30;93.50
66568;DHT22;53422;49.296;6.900;2024-01-11T04:41:41;-3.30;94.40
66568;DHT22;53422;49.296;6.900;2024-01-11T04:44:07;-3.30;94.00
66568;DHT22;53422;49.296;6.900;2024-01-11T04:46:32;-3.30;93.80
66568;DHT22;53422;49.296;6.900;2024-01-11T04:48:58;-3.30;93.90
66568;DHT22;53422;49.296;6.900;2024-01-11T04:51:24;-3.30;93.60
66568;DHT22;53422;49.296;6.900;2024-01-11T04:53:49;-3.30;94.20
66568;DHT22;53422;49.296;6.900;2024-01-11T04:56:16;-3.30;94.00
66568;DHT22;53422;49.296;6.900;2024-01-11T04:58:43;-3.30;94.10
66568;DHT22;53422;49.296;6.900;2024-01-11T05:01:13;-3.30;94.30
66568;DHT22;53422;49.296;6.900;2024-01-11T05:03:38;-3.30;94.10
66568;DHT22;53422;49.296;6.900;2024-01-11T05:06:04;-3.30;94.20
66568;DHT22;53422;49.296;6.900;2024-01-11T05:08:30;-3.30;94.40
66568;DHT22;53422;49.296;6.900;2024-01-11T05:10:55;-3.30;94.20
66568;DHT22;53422;49.296;6.900;2024-01-11T05:13:21;-3.30;94.00
66568;DHT22;53422;49.296;6.900;2024-01-11T05:15:47;-3.30;94.10
66568;DHT22;53422;49.296;6.900;2024-01-11T05:18:13;-3.40;93.90
66568;DHT22;53422;49.296;6.900;2024-01-11T05:20:39;-3.40;94.40
66568;DHT22;53422;49.296;6.900;2024-01-11T05:23:04;-3.30;94.20
66568;DHT22;53422;49.296;6.900;2024-01-11T05:25:31;-3.40;94.40
66568;DHT22;53422;49.296;6.900;2024-01-11T05:28:02;-3.40;94.30
66568;DHT22;53422;49.296;6.900;2024-01-11T05:30:29;-3.40;94.10
66568;DHT22;53422;49.296;6.900;2024-01-11T05:32:55;-3.40;94.80
66568;DHT22;53422;49.296;6.900;2024-01-11T05:35:21;-3.40;94.70
66568;DHT22;53422;49.296;6.900;2024-01-11T05:37:50;-3.40;94.50
66568;DHT22;53422;49.296;6.900;2024-01-11T05:40:15;-3.40;94.70
66568;DHT22;53422;49.296;6.900;2024-01-11T05:42:41;-3.40;94.20
66568;DHT22;53422;49.296;6.900;2024-01-11T05:45:07;-3.40;94.40
66568;DHT22;53422;49.296;6.900;2024-01-11T05:47:33;-3.40;94.70
66568;DHT22;53422;49.296;6.900;2024-01-11T05:49:59;-3.40;94.90
66568;DHT22;53422;49.296;6.900;2024-01-11T05:52:24;-3.40;94.60
66568;DHT22;53422;49.296;6.900;2024-01-11T05:54:50;-3.40;94.70
66568;DHT22;53422;49.296;6.900;2024-01-11T05:57:16;-3.40;94.50
66568;DHT22;53422;49.296;6.900;2024-01-11T05:59:44;-3.40;94.70
66568;DHT22;53422;49.296;6.900;2024-01-11T06:02:11;-3.40;94.40
66568;DHT22;53422;49.296;6.900;2024-01-11T06:04:37;-3.40;94.50
66568;DHT22;53422;49.296;6.900;2024-01-11T06:07:03;-3.40;94.80
66568;DHT22;53422;49.296;6.900;2024-01-11T06:09:28;-3.40;94.90
66568;DHT22;53422;49.296;6.900;2024-01-11T06:11:54;-3.40;94.70
66568;DHT22;53422;49.296;6.900;2024-01-11T06:14:20;-3.40;95.20
66568;DHT22;53422;49.296;6.900;2024-01-11T06:16:46;-3.40;94.70
66568;DHT22;53422;49.296;6.900;2024-01-11T06:19:11;-3.40;95.00
66568;DHT22;53422;49.296;6.900;2024-01-11T06:21:37;-3.40;94.70
66568;DHT22;53422;49.296;6.900;2024-01-11T06:24:03;-3.40;94.90
66568;DHT22;53422;49.296;6.900;2024-01-11T06:26:29;-3.40;94.70
66568;DHT22;53422;49.296;6.900;2024-01-11T06:28:55;-3.50;95.00
66568;DHT22;53422;49.296;6.900;2024-01-11T06:31:21;-3.50;94.70
66568;DHT22;53422;49.296;6.900;2024-01-11T06:33:47;-3.50;95.30
66568;DHT22;53422;49.296;6.900;2024-01-11T06:36:13;-3.50;94.60
66568;DHT22;53422;49.296;6.900;2024-01-11T06:38:39;-3.50;95.00
66568;DHT22;53422;49.296;6.900;2024-01-11T06:41:04;-3.40;95.00
66568;DHT22;53422;49.296;6.900;2024-01-11T06:43:30;-3.50;95.00
66568;DHT22;53422;49.296;6.900;2024-01-11T06:45:56;-3.40;94.80
66568;DHT22;53422;49.296;6.900;2024-01-11T06:48:21;-3.40;95.10
66568;DHT22;53422;49.296;6.900;2024-01-11T06:50:47;-3.40;95.00
66568;DHT22;53422;49.296;6.900;2024-01-11T06:53:13;-3.50;94.90
66568;DHT22;53422;49.296;6.900;2024-01-11T06:55:38;-3.50;95.00
66568;DHT22;53422;49.296;6.900;2024-01-11T06:58:06;-3.50;94.70
66568;DHT22;53422;49.296;6.900;2024-01-11T07:00:32;-3.50;95.20
66568;DHT22;53422;49.296;6.900;2024-01-11T07:02:57;-3.50;95.40
66568;DHT22;53422;49.296;6.900;2024-01-11T07:05:23;-3.50;95.20
66568;DHT22;53422;49.296;6.900;2024-01-11T07:07:49;-3.40;95.30
66568;DHT22;53422;49.296;6.900;2024-01-11T07:10:14;-3.50;94.80
66568;DHT22;53422;49.296;6.900;2024-01-11T07:12:41;-3.50;95.40
66568;DHT22;53422;49.296;6.900;2024-01-11T07:15:08;-3.50;95.00
66568;DHT22;53422;49.296;6.900;2024-01-11T07:17:34;-3.50;95.10
66568;DHT22;53422;49.296;6.900;2024-01-11T07:20:00;-3.50;95.50
66568;DHT22;53422;49.296;6.900;2024-01-11T07:22:26;-3.50;95.60
66568;DHT22;53422;49.296;6.900;2024-01-11T07:24:52;-3.50;95.30
66568;DHT22;53422;49.296;6.900;2024-01-11T07:27:17;-3.50;95.50
66568;DHT22;53422;49.296;6.900;2024-01-11T07:29:43;-3.50;95.80
66568;DHT22;53422;49.296;6.900;2024-01-11T07:32:12;-3.50;94.80
66568;DHT22;53422;49.296;6.900;2024-01-11T07:34:38;-3.50;95.00
66568;DHT22;53422;49.296;6.900;2024-01-11T07:37:04;-3.50;95.40
66568;DHT22;53422;49.296;6.900;2024-01-11T07:39:29;-3.50;95.40
66568;DHT22;53422;49.296;6.900;2024-01-11T07:41:56;-3.50;95.60
66568;DHT22;53422;49.296;6.900;2024-01-11T07:44:22;-3.50;95.70
66568;DHT22;53422;49.296;6.900;2024-01-11T07:46:47;-3.50;95.60
66568;DHT22;53422;49.296;6.900;2024-01-11T07:49:13;-3.50;95.20
66568;DHT22;53422;49.296;6.900;2024-01-11T07:51:39;-3.50;95.70
66568;DHT22;53422;49.296;6.900;2024-01-11T07:54:04;-3.50;95.40
66568;DHT22;53422;49.296;6.900;2024-01-11T07:56:30;-3.60;95.40
66568;DHT22;53422;49.296;6.900;2024-01-11T07:58:56;-3.50;95.70
66568;DHT22;53422;49.296;6.900;2024-01-11T08:01:22;-3.50;95.40
66568;DHT22;53422;49.296;6.900;2024-01-11T08:03:48;-3.50;95.50
66568;DHT22;53422;49.296;6.900;2024-01-11T08:06:13;-3.50;95.40
66568;DHT22;53422;49.296;6.900;2024-01-11T08:08:39;-3.50;95.90
66568;DHT22;53422;49.296;6.900;2024-01-11T08:11:07;-3.50;95.80
66568;DHT22;53422;49.296;6.900;2024-01-11T08:13:33;-3.50;95.60
66568;DHT22;53422;49.296;6.900;2024-01-11T08:16:01;-3.50;96.00
66568;DHT22;53422;49.296;6.900;2024-01-11T08:18:29;-3.50;95.50
66568;DHT22;53422;49.296;6.900;2024-01-11T08:20:55;-3.50;95.70
66568;DHT22;53422;49.296;6.900;2024-01-11T08:23:21;-3.50;95.80
66568;DHT22;53422;49.296;6.900;2024-01-11T08:25:47;-3.60;95.40
66568;DHT22;53422;49.296;6.900;2024-01-11T08:28:12;-3.50;96.30
66568;DHT22;53422;49.296;6.900;2024-01-11T08:30:38;-3.50;95.90
66568;DHT22;53422;49.296;6.900;2024-01-11T08:33:04;-3.60;95.60
66568;DHT22;53422;49.296;6.900;2024-01-11T08:35:30;-3.50;95.80
66568;DHT22;53422;49.296;6.900;2024-01-11T08:37:58;-3.50;95.90
66568;DHT22;53422;49.296;6.900;2024-01-11T08:40:24;-3.50;96.00
66568;DHT22;53422;49.296;6.900;2024-01-11T08:42:50;-3.50;95.90
66568;DHT22;53422;49.296;6.900;2024-01-11T08:45:16;-3.50;95.90
66568;DHT22;53422;49.296;6.900;2024-01-11T08:47:46;-3.50;96.50
66568;DHT22;53422;49.296;6.900;2024-01-11T08:50:16;-3.50;96.50
66568;DHT22;53422;49.296;6.900;2024-01-11T08:52:43;-3.50;96.50
66568;DHT22;53422;49.296;6.900;2024-01-11T08:55:08;-3.50;96.40
66568;DHT22;53422;49.296;6.900;2024-01-11T08:57:35;-3.40;96.30
66568;DHT22;53422;49.296;6.900;2024-01-11T09:00:05;-3.50;96.30
66568;DHT22;53422;49.296;6.900;2024-01-11T09:02:33;-3.40;96.40
66568;DHT22;53422;49.296;6.900;2024-01-11T09:04:59;-3.40;96.50
66568;DHT22;53422;49.296;6.900;2024-01-11T09:07:25;-3.40;97.00
66568;DHT22;53422;49.296;6.900;2024-01-11T09:09:51;-3.40;97.10
66568;DHT22;53422;49.296;6.900;2024-01-11T09:12:16;-3.40;97.00
66568;DHT22;53422;49.296;6.900;2024-01-11T09:14:42;-3.50;96.80
66568;DHT22;53422;49.296;6.900;2024-01-11T09:17:08;-3.50;97.30
66568;DHT22;53422;49.296;6.900;2024-01-11T09:19:33;-3.60;96.70
66568;DHT22;53422;49.296;6.900;2024-01-11T09:21:59;-3.70;97.90
66568;DHT22;53422;49.296;6.900;2024-01-11T09:24:25;-3.60;97.80
66568;DHT22;53422;49.296;6.900;2024-01-11T09:26:51;-3.60;98.60
66568;DHT22;53422;49.296;6.900;2024-01-11T09:29:16;-3.50;98.90
66568;DHT22;53422;49.296;6.900;2024-01-11T09:31:42;-3.40;99.20
66568;DHT22;53422;49.296;6.900;2024-01-11T09:34:08;-3.50;98.50
66568;DHT22;53422;49.296;6.900;2024-01-11T09:36:34;-3.40;99.20
66568;DHT22;53422;49.296;6.900;2024-01-11T09:39:00;-3.40;99.10
66568;DHT22;53422;49.296;6.900;2024-01-11T09:41:26;-3.20;98.80
66568;DHT22;53422;49.296;6.900;2024-01-11T09:43:54;-3.20;99.10
66568;DHT22;53422;49.296;6.900;2024-01-11T09:46:23;-3.20;98.50
66568;DHT22;53422;49.296;6.900;2024-01-11T09:48:50;-3.10;99.20
66568;DHT22;53422;49.296;6.900;2024-01-11T09:51:19;-3.00;98.80
66568;DHT22;53422;49.296;6.900;2024-01-11T09:53:47;-3.00;98.40
66568;DHT22;53422;49.296;6.900;2024-01-11T09:56:16;-3.00;98.50
66568;DHT22;53422;49.296;6.900;2024-01-11T09:58:46;-3.00;98.70
66568;DHT22;53422;49.296;6.900;2024-01-11T10:01:14;-3.10;99.30
66568;DHT22;53422;49.296;6.900;2024-01-11T10:03:40;-3.00;99.80
66568;DHT22;53422;49.296;6.900;2024-01-11T10:06:09;-2.90;99.60
66568;DHT22;53422;49.296;6.900;2024-01-11T10:08:36;-2.90;99.30
66568;DHT22;53422;49.296;6.900;2024-01-11T10:11:02;-2.90;99.60
66568;DHT22;53422;49.296;6.900;2024-01-11T10:13:29;-2.90;99.70
66568;DHT22;53422;49.296;6.900;2024-01-11T10:16:07;-2.90;99.90
66568;DHT22;53422;49.296;6.900;2024-01-11T10:18:33;-2.70;99.70
66568;DHT22;53422;49.296;6.900;2024-01-11T10:20:59;-2.60;99.60
66568;DHT22;53422;49.296;6.900;2024-01-11T10:23:25;-2.60;99.40
66568;DHT22;53422;49.296;6.900;2024-01-11T10:25:50;-2.60;99.00
66568;DHT22;53422;49.296;6.900;2024-01-11T10:28:17;-2.50;98.80
66568;DHT22;53422;49.296;6.900;2024-01-11T10:30:46;-2.50;99.20
66568;DHT22;53422;49.296;6.900;2024-01-11T10:33:12;-2.40;98.90
66568;DHT22;53422;49.296;6.900;2024-01-11T10:35:38;-2.30;97.90
66568;DHT22;53422;49.296;6.900;2024-01-11T10:38:09;-2.30;98.40
66568;DHT22;53422;49.296;6.900;2024-01-11T10:40:35;-2.30;98.50
66568;DHT22;53422;49.296;6.900;2024-01-11T10:43:05;-2.30;98.50
66568;DHT22;53422;49.296;6.900;2024-01-11T10:45:37;-2.20;97.90
66568;DHT22;53422;49.296;6.900;2024-01-11T10:48:10;-2.10;97.60
66568;DHT22;53422;49.296;6.900;2024-01-11T10:50:42;-2.10;97.90
66568;DHT22;53422;49.296;6.900;2024-01-11T10:53:26;-2.10;98.20
66568;DHT22;53422;49.296;6.900;2024-01-11T10:55:55;-2.10;97.90
66568;DHT22;53422;49.296;6.900;2024-01-11T10:58:23;-2.10;98.20
66568;DHT22;53422;49.296;6.900;2024-01-11T11:00:51;-2.00;98.70
66568;DHT22;53422;49.296;6.900;2024-01-11T11:03:19;-2.00;98.50
66568;DHT22;53422;49.296;6.900;2024-01-11T11:05:47;-1.90;97.40
66568;DHT22;53422;49.296;6.900;2024-01-11T11:08:14;-1.90;97.70
66568;DHT22;53422;49.296;6.900;2024-01-11T11:10:40;-1.90;97.50
66568;DHT22;53422;49.296;6.900;2024-01-11T11:13:08;-1.90;97.90
66568;DHT22;53422;49.296;6.900;2024-01-11T11:15:35;-1.70;97.30
66568;DHT22;53422;49.296;6.900;2024-01-11T11:18:02;-1.70;97.30
66568;DHT22;53422;49.296;6.900;2024-01-11T11:20:29;-1.70;96.90
66568;DHT22;53422;49.296;6.900;2024-01-11T11:23:05;-1.70;97.20
66568;DHT22;53422;49.296;6.900;2024-01-11T11:25:31;-1.60;96.10
66568;DHT22;53422;49.296;6.900;2024-01-11T11:27:58;-1.70;96.60
66568;DHT22;53422;49.296;6.900;2024-01-11T11:30:27;-1.70;96.60
66568;DHT22;53422;49.296;6.900;2024-01-11T11:32:54;-1.70;97.40
66568;DHT22;53422;49.296;6.900;2024-01-11T11:35:23;-1.60;96.40
66568;DHT22;53422;49.296;6.900;2024-01-11T11:37:53;-1.60;97.50
66568;DHT22;53422;49.296;6.900;2024-01-11T11:40:20;-1.60;97.10
66568;DHT22;53422;49.296;6.900;2024-01-11T11:42:47;-1.60;96.70
66568;DHT22;53422;49.296;6.900;2024-01-11T11:45:25;-1.50;97.10
66568;DHT22;53422;49.296;6.900;2024-01-11T11:47:51;-1.50;96.40
66568;DHT22;53422;49.296;6.900;2024-01-11T11:50:16;-1.50;96.60
66568;DHT22;53422;49.296;6.900;2024-01-11T11:52:44;-1.50;96.80
66568;DHT22;53422;49.296;6.900;2024-01-11T11:55:11;-1.50;96.30
66568;DHT22;53422;49.296;6.900;2024-01-11T11:57:38;-1.50;96.50
66568;DHT22;53422;49.296;6.900;2024-01-11T12:00:04;-1.40;96.80
66568;DHT22;53422;49.296;6.900;2024-01-11T12:02:32;-1.40;95.80
66568;DHT22;53422;49.296;6.900;2024-01-11T12:04:58;-1.30;95.90
66568;DHT22;53422;49.296;6.900;2024-01-11T12:07:24;-1.30;95.20
66568;DHT22;53422;49.296;6.900;2024-01-11T12:09:51;-1.10;94.20
66568;DHT22;53422;49.296;6.900;2024-01-11T12:12:17;-1.30;96.10
66568;DHT22;53422;49.296;6.900;2024-01-11T12:14:48;-1.20;95.70
66568;DHT22;53422;49.296;6.900;2024-01-11T12:17:15;-1.30;96.10
66568;DHT22;53422;49.296;6.900;2024-01-11T12:19:41;-1.30;96.10
66568;DHT22;53422;49.296;6.900;2024-01-11T12:22:07;-1.10;95.10
66568;DHT22;53422;49.296;6.900;2024-01-11T12:24:34;-1.10;94.80
66568;DHT22;53422;49.296;6.900;2024-01-11T12:27:00;-1.10;94.70
66568;DHT22;53422;49.296;6.900;2024-01-11T12:29:29;-1.10;94.20
66568;DHT22;53422;49.296;6.900;2024-01-11T12:31:57;-1.00;93.10
66568;DHT22;53422;49.296;6.900;2024-01-11T12:34:24;-1.00;93.90
66568;DHT22;53422;49.296;6.900;2024-01-11T12:36:52;-0.90;93.30
66568;DHT22;53422;49.296;6.900;2024-01-11T12:39:19;-1.00;93.30
66568;DHT22;53422;49.296;6.900;2024-01-11T12:41:50;-0.90;93.40
66568;DHT22;53422;49.296;6.900;2024-01-11T12:44:17;-1.00;93.70
66568;DHT22;53422;49.296;6.900;2024-01-11T12:46:44;-0.90;92.60
66568;DHT22;53422;49.296;6.900;2024-01-11T12:49:10;-0.80;92.80
66568;DHT22;53422;49.296;6.900;2024-01-11T12:51:36;-0.70;91.50
66568;DHT22;53422;49.296;6.900;2024-01-11T12:54:02;-0.70;91.20
66568;DHT22;53422;49.296;6.900;2024-01-11T12:56:29;-0.60;90.60
66568;DHT22;53422;49.296;6.900;2024-01-11T12:59:08;-0.60;90.70
66568;DHT22;53422;49.296;6.900;2024-01-11T13:01:36;-0.60;91.00
66568;DHT22;53422;49.296;6.900;2024-01-11T13:04:01;-0.60;90.80
66568;DHT22;53422;49.296;6.900;2024-01-11T13:06:32;-0.60;90.00
66568;DHT22;53422;49.296;6.900;2024-01-11T13:08:58;-0.50;90.50
66568;DHT22;53422;49.296;6.900;2024-01-11T13:11:24;-0.50;90.30
66568;DHT22;53422;49.296;6.900;2024-01-11T13:13:53;-0.50;91.00
66568;DHT22;53422;49.296;6.900;2024-01-11T13:16:19;-0.60;91.60
66568;DHT22;53422;49.296;6.900;2024-01-11T13:18:45;-0.40;90.60
66568;DHT22;53422;49.296;6.900;2024-01-11T13:21:11;-0.50;90.10
66568;DHT22;53422;49.296;6.900;2024-01-11T13:23:40;-0.40;90.40
66568;DHT22;53422;49.296;6.900;2024-01-11T13:26:07;-0.30;88.00
66568;DHT22;53422;49.296;6.900;2024-01-11T13:28:35;-0.30;88.20
66568;DHT22;53422;49.296;6.900;2024-01-11T13:31:01;-0.20;88.10
66568;DHT22;53422;49.296;6.900;2024-01-11T13:33:28;-0.30;89.80
66568;DHT22;53422;49.296;6.900;2024-01-11T13:35:54;-0.30;89.70
66568;DHT22;53422;49.296;6.900;2024-01-11T13:38:20;-0.30;90.90
66568;DHT22;53422;49.296;6.900;2024-01-11T13:40:46;-0.40;92.20
66568;DHT22;53422;49.296;6.900;2024-01-11T13:43:12;-0.50;92.70
66568;DHT22;53422;49.296;6.900;2024-01-11T13:45:37;-0.40;92.30
66568;DHT22;53422;49.296;6.900;2024-01-11T13:48:05;-0.20;91.40
66568;DHT22;53422;49.296;6.900;2024-01-11T13:50:30;-0.30;92.00
66568;DHT22;53422;49.296;6.900;2024-01-11T13:52:56;-0.30;92.20
66568;DHT22;53422;49.296;6.900;2024-01-11T13:55:22;-0.20;91.20
66568;DHT22;53422;49.296;6.900;2024-01-11T13:57:51;-0.10;89.90
66568;DHT22;53422;49.296;6.900;2024-01-11T14:00:18;0.00;89.80
66568;DHT22;53422;49.296;6.900;2024-01-11T14:02:44;0.00;89.90
66568;DHT22;53422;49.296;6.900;2024-01-11T14:05:13;0.10;86.50
66568;DHT22;53422;49.296;6.900;2024-01-11T14:07:41;0.10;86.90
66568;DHT22;53422;49.296;6.900;2024-01-11T14:10:07;0.10;86.10
66568;DHT22;53422;49.296;6.900;2024-01-11T14:12:35;0.10;88.50
66568;DHT22;53422;49.296;6.900;2024-01-11T14:15:03;0.10;87.20
66568;DHT22;53422;49.296;6.900;2024-01-11T14:17:29;0.20;85.30
66568;DHT22;53422;49.296;6.900;2024-01-11T14:19:55;0.20;84.70
66568;DHT22;53422;49.296;6.900;2024-01-11T14:22:20;0.20;82.70
66568;DHT22;53422;49.296;6.900;2024-01-11T14:24:46;0.20;82.80
66568;DHT22;53422;49.296;6.900;2024-01-11T14:27:12;0.20;81.90
66568;DHT22;53422;49.296;6.900;2024-01-11T14:29:40;0.30;80.30
66568;DHT22;53422;49.296;6.900;2024-01-11T14:32:06;0.30;81.30
66568;DHT22;53422;49.296;6.900;2024-01-11T14:34:31;0.30;79.90
66568;DHT22;53422;49.296;6.900;2024-01-11T14:36:58;0.40;78.50
66568;DHT22;53422;49.296;6.900;2024-01-11T14:39:24;0.40;77.90
66568;DHT22;53422;49.296;6.900;2024-01-11T14:41:53;0.30;80.00
66568;DHT22;53422;49.296;6.900;2024-01-11T14:44:19;0.40;79.40
66568;DHT22;53422;49.296;6.900;2024-01-11T14:46:45;0.30;80.00
66568;DHT22;53422;49.296;6.900;2024-01-11T14:49:11;0.20;80.50
66568;DHT22;53422;49.296;6.900;2024-01-11T14:51:36;0.30;79.60
66568;DHT22;53422;49.296;6.900;2024-01-11T14:54:03;0.20;83.70
66568;DHT22;53422;49.296;6.900;2024-01-11T14:56:32;0.10;83.30
66568;DHT22;53422;49.296;6.900;2024-01-11T14:58:58;0.10;84.10
66568;DHT22;53422;49.296;6.900;2024-01-11T15:01:23;0.00;85.70
66568;DHT22;53422;49.296;6.900;2024-01-11T15:03:49;-0.10;87.30
66568;DHT22;53422;49.296;6.900;2024-01-11T15:06:15;0.00;87.00
66568;DHT22;53422;49.296;6.900;2024-01-11T15:08:41;-0.10;89.20
66568;DHT22;53422;49.296;6.900;2024-01-11T15:11:07;-0.10;85.80
66568;DHT22;53422;49.296;6.900;2024-01-11T15:13:33;-0.10;87.90
66568;DHT22;53422;49.296;6.900;2024-01-11T15:15:59;0.00;84.30
66568;DHT22;53422;49.296;6.900;2024-01-11T15:18:26;0.00;85.80
66568;DHT22;53422;49.296;6.900;2024-01-11T15:20:51;0.00;85.70
66568;DHT22;53422;49.296;6.900;2024-01-11T15:23:20;0.00;87.00
66568;DHT22;53422;49.296;6.900;2024-01-11T15:25:47;-0.10;89.50
66568;DHT22;53422;49.296;6.900;2024-01-11T15:28:13;-0.20;89.80